createdAt,value
2018-11-27T00:00:51.516Z,47.8
2018-11-27T00:01:53.143Z,47.7
2018-11-27T00:02:53.914Z,47.9
2018-11-27T00:03:55.809Z,47.8
2018-11-27T00:04:57.428Z,47.8
2018-11-27T00:05:59.048Z,47.9
2018-11-27T00:07:00.672Z,47.9
2018-11-27T00:08:02.574Z,47.9
2018-11-27T00:09:04.463Z,48
2018-11-27T00:10:05.786Z,48
2018-11-27T00:11:06.861Z,47.8
2018-11-27T00:12:08.757Z,47.5
2018-11-27T00:13:10.282Z,47.7
2018-11-27T00:14:12.183Z,47.8
2018-11-27T00:15:13.538Z,47.8
2018-11-27T00:16:15.148Z,47.7
2018-11-27T00:17:16.767Z,47.8
2018-11-27T00:18:18.389Z,47.4
2018-11-27T00:19:19.738Z,47.9
2018-11-27T00:20:21.632Z,47.8
2018-11-27T00:21:23.253Z,47.8
2018-11-27T00:22:24.305Z,47.8
2018-11-27T00:23:25.903Z,47.8
2018-11-27T00:24:27.552Z,47.8
2018-11-27T00:25:29.173Z,47.9
2018-11-27T00:26:30.500Z,48
2018-11-27T00:27:32.391Z,47.9
2018-11-27T00:28:34.008Z,48
2018-11-27T00:29:35.335Z,47.9
2018-11-27T00:30:36.659Z,48
2018-11-27T00:31:37.989Z,48
2018-11-27T00:32:39.338Z,47.6
2018-11-27T00:33:40.958Z,48
2018-11-27T00:34:42.279Z,47.7
2018-11-27T00:35:43.879Z,47.8
2018-11-27T00:36:44.950Z,47.4
2018-11-27T00:37:46.549Z,48
2018-11-27T00:38:48.445Z,47.7
2018-11-27T00:39:49.785Z,48
2018-11-27T00:40:51.694Z,47.4
2018-11-27T00:41:53.591Z,47.7
2018-11-27T00:42:55.483Z,48
2018-11-27T00:43:56.814Z,47.7
2018-11-27T00:44:58.431Z,47.9
2018-11-27T00:46:00.348Z,48
2018-11-27T00:47:01.950Z,47.9
2018-11-27T00:48:03.298Z,47.9
2018-11-27T00:49:04.916Z,47.8
2018-11-27T00:50:06.258Z,48
2018-11-27T00:51:08.161Z,47.6
2018-11-27T00:52:10.061Z,48.1
2018-11-27T00:53:11.959Z,48
2018-11-27T00:54:13.852Z,47.7
2018-11-27T00:55:15.451Z,47.9
2018-11-27T00:56:17.343Z,47.9
2018-11-27T00:57:19.248Z,47.8
2018-11-27T00:58:21.144Z,48.2
2018-11-27T00:59:23.089Z,48
2018-11-27T01:00:24.741Z,47.9
2018-11-27T01:01:26.637Z,47.9
2018-11-27T01:02:28.532Z,47.9
2018-11-27T01:03:30.152Z,48
2018-11-27T01:04:34.804Z,47.6
2018-11-27T01:05:36.424Z,48.3
2018-11-27T01:06:38.046Z,48
2018-11-27T01:07:39.943Z,48.2
2018-11-27T01:08:41.566Z,48.2
2018-11-27T01:09:42.929Z,48.1
2018-11-27T01:10:44.545Z,48.1
2018-11-27T01:11:46.440Z,48.3
2018-11-27T01:12:47.514Z,47.9
2018-11-27T01:13:49.420Z,47.8
2018-11-27T01:14:50.457Z,48
2018-11-27T01:15:52.077Z,47.8
2018-11-27T01:16:53.404Z,47.3
2018-11-27T01:17:54.753Z,47.7
2018-11-27T01:18:56.110Z,47.8
2018-11-27T01:19:57.455Z,47.7
2018-11-27T01:20:59.075Z,47.8
2018-11-27T01:22:00.398Z,47.8
2018-11-27T01:23:02.021Z,47.8
2018-11-27T01:24:03.639Z,47.8
2018-11-27T01:25:05.258Z,47.8
2018-11-27T01:26:07.153Z,47.9
2018-11-27T01:27:09.048Z,47.7
2018-11-27T01:28:10.942Z,47.9
2018-11-27T01:29:12.839Z,48
2018-11-27T01:30:14.734Z,48
2018-11-27T01:31:16.353Z,48
2018-11-27T01:32:17.973Z,47.9
2018-11-27T01:33:19.876Z,47.9
2018-11-27T01:34:21.217Z,47.7
2018-11-27T01:35:22.821Z,47.9
2018-11-27T01:36:24.719Z,48
2018-11-27T01:37:26.613Z,47.9
2018-11-27T01:38:28.508Z,48
2018-11-27T01:39:29.856Z,47.7
2018-11-27T01:40:31.203Z,47.9
2018-11-27T01:41:32.827Z,48
2018-11-27T01:42:34.449Z,48
2018-11-27T01:43:36.344Z,48
2018-11-27T01:44:38.237Z,47.4
2018-11-27T01:45:39.563Z,48.1
2018-11-27T01:46:40.913Z,47.8
2018-11-27T01:47:42.535Z,47.8
2018-11-27T01:48:43.861Z,48
2018-11-27T01:49:45.754Z,48
2018-11-27T01:50:47.678Z,48
2018-11-27T01:51:49.574Z,48
2018-11-27T01:52:50.923Z,47.9
2018-11-27T01:53:52.821Z,47.8
2018-11-27T01:54:54.438Z,47.9
2018-11-27T01:55:56.061Z,47.9
2018-11-27T01:56:57.683Z,47.9
2018-11-27T01:57:59.029Z,48
2018-11-27T01:59:00.649Z,47.9
2018-11-27T02:00:02.543Z,48
2018-11-27T02:01:04.438Z,48
2018-11-27T02:02:05.783Z,48.1
2018-11-27T02:03:06.552Z,48
2018-11-27T02:04:07.900Z,48
2018-11-27T02:05:09.500Z,48
2018-11-27T02:06:11.117Z,47.8
2018-11-27T02:07:12.441Z,47.9
2018-11-27T02:08:14.040Z,48.1
2018-11-27T02:09:15.662Z,47.9
2018-11-27T02:10:17.049Z,47.9
2018-11-27T02:11:18.371Z,48
2018-11-27T02:12:19.993Z,47.9
2018-11-27T02:13:21.886Z,47.8
2018-11-27T02:14:23.779Z,47.8
2018-11-27T02:15:25.676Z,47.8
2018-11-27T02:16:27.580Z,47.6
2018-11-27T02:17:29.477Z,47.7
2018-11-27T02:18:31.087Z,47.7
2018-11-27T02:19:32.707Z,47.8
2018-11-27T02:20:34.328Z,47.8
2018-11-27T02:21:35.945Z,47.7
2018-11-27T02:22:37.842Z,47.7
2018-11-27T02:23:39.442Z,47.3
2018-11-27T02:24:40.787Z,47.7
2018-11-27T02:25:42.405Z,47.7
2018-11-27T02:26:43.731Z,47.8
2018-11-27T02:27:45.625Z,48
2018-11-27T02:28:46.968Z,47.9
2018-11-27T02:29:48.568Z,48.1
2018-11-27T02:30:50.463Z,47.8
2018-11-27T02:31:51.513Z,47.5
2018-11-27T02:32:53.409Z,47.7
2018-11-27T02:33:55.029Z,47.3
2018-11-27T02:34:56.351Z,47.8
2018-11-27T02:35:57.677Z,47.8
2018-11-27T02:36:59.569Z,47.8
2018-11-27T02:38:01.474Z,47.9
2018-11-27T02:39:03.374Z,47.3
2018-11-27T02:40:05.266Z,47.6
2018-11-27T02:41:07.173Z,47.8
2018-11-27T02:42:08.795Z,47.8
2018-11-27T02:43:09.864Z,47.8
2018-11-27T02:44:11.486Z,47.6
2018-11-27T02:45:13.383Z,47.8
2018-11-27T02:46:15.004Z,47.3
2018-11-27T02:47:16.327Z,47.7
2018-11-27T02:48:17.653Z,47.6
2018-11-27T02:49:19.280Z,47.1
2018-11-27T02:50:20.875Z,47.6
2018-11-27T02:51:22.198Z,47.9
2018-11-27T02:52:23.819Z,47.8
2018-11-27T02:53:25.440Z,47.7
2018-11-27T02:54:27.041Z,47.8
2018-11-27T02:55:28.641Z,47.8
2018-11-27T02:56:29.985Z,47.6
2018-11-27T02:57:31.603Z,47.7
2018-11-27T02:58:33.209Z,47.1
2018-11-27T02:59:34.824Z,47.5
2018-11-27T03:00:36.425Z,47.7
2018-11-27T03:01:38.046Z,47.7
2018-11-27T03:02:39.370Z,47.8
2018-11-27T03:03:41.267Z,47.8
2018-11-27T03:04:42.890Z,47.6
2018-11-27T03:05:44.507Z,47.8
2018-11-27T03:06:46.401Z,47.6
2018-11-27T03:07:48.024Z,47.9
2018-11-27T03:08:49.650Z,47.8
2018-11-27T03:09:51.280Z,47.7
2018-11-27T03:10:53.178Z,47.8
2018-11-27T03:11:54.534Z,47.9
2018-11-27T03:12:56.434Z,47.8
2018-11-27T03:13:58.328Z,47.9
2018-11-27T03:15:00.220Z,47.9
2018-11-27T03:16:02.117Z,47.7
2018-11-27T03:17:03.719Z,47.7
2018-11-27T03:18:05.319Z,47.8
2018-11-27T03:19:06.646Z,47.6
2018-11-27T03:20:08.248Z,47.5
2018-11-27T03:21:09.873Z,47.3
2018-11-27T03:22:11.470Z,47.5
2018-11-27T03:23:13.383Z,47.7
2018-11-27T03:24:14.995Z,47.8
2018-11-27T03:25:16.897Z,47.8
2018-11-27T03:26:18.793Z,47.7
2018-11-27T03:27:19.845Z,47.9
2018-11-27T03:28:21.193Z,47.5
2018-11-27T03:29:22.522Z,47.6
2018-11-27T03:30:23.904Z,47.8
2018-11-27T03:31:25.624Z,47.6
2018-11-27T03:32:27.548Z,47.7
2018-11-27T03:33:29.167Z,47.8
2018-11-27T03:34:30.786Z,47.8
2018-11-27T03:35:32.682Z,47.6
2018-11-27T03:36:34.289Z,47.6
2018-11-27T03:37:36.190Z,47.8
2018-11-27T03:38:37.518Z,47.7
2018-11-27T03:39:39.414Z,47.7
2018-11-27T03:40:41.309Z,47.7
2018-11-27T03:41:42.910Z,47.8
2018-11-27T03:42:44.811Z,48
2018-11-27T03:43:46.701Z,47.6
2018-11-27T03:44:48.597Z,48
2018-11-27T03:45:50.195Z,47.8
2018-11-27T03:46:52.111Z,47.8
2018-11-27T03:47:54.007Z,47.8
2018-11-27T03:48:55.056Z,47.8
2018-11-27T03:49:56.108Z,47.6
2018-11-27T03:50:57.160Z,47.9
2018-11-27T03:51:58.784Z,48
2018-11-27T03:53:00.683Z,47.7
2018-11-27T03:54:02.285Z,48.2
2018-11-27T03:55:03.906Z,48
2018-11-27T03:56:05.550Z,47.9
2018-11-27T03:57:07.196Z,48.1
2018-11-27T03:58:09.092Z,48
2018-11-27T03:59:10.144Z,47.9
2018-11-27T04:00:11.753Z,47.7
2018-11-27T04:01:13.103Z,48.3
2018-11-27T04:02:14.460Z,48
2018-11-27T04:03:16.354Z,48.3
2018-11-27T04:04:18.248Z,48.3
2018-11-27T04:05:19.595Z,47.6
2018-11-27T04:06:21.214Z,48.2
2018-11-27T04:07:23.113Z,48.3
2018-11-27T04:08:24.731Z,48.1
2018-11-27T04:09:26.627Z,48.2
2018-11-27T04:10:27.956Z,48.2
2018-11-27T04:11:29.606Z,48
2018-11-27T04:12:31.505Z,47.6
2018-11-27T04:13:32.826Z,47.6
2018-11-27T04:14:34.721Z,48.2
2018-11-27T04:15:36.042Z,47.6
2018-11-27T04:16:37.665Z,47.5
2018-11-27T04:17:39.325Z,48.2
2018-11-27T04:18:41.220Z,47.6
2018-11-27T04:19:42.841Z,47.5
2018-11-27T04:20:44.737Z,48.4
2018-11-27T04:21:46.362Z,47.9
2018-11-27T04:22:47.691Z,48.2
2018-11-27T04:23:49.578Z,47.9
2018-11-27T04:24:51.468Z,48.3
2018-11-27T04:25:52.791Z,48.4
2018-11-27T04:26:54.115Z,48.1
2018-11-27T04:27:55.734Z,48.2
2018-11-27T04:28:57.377Z,48.4
2018-11-27T04:29:59.277Z,47.5
2018-11-27T04:31:00.893Z,48.1
2018-11-27T04:32:02.215Z,48.2
2018-11-27T04:33:03.839Z,48.3
2018-11-27T04:34:05.536Z,48.3
2018-11-27T04:35:07.445Z,48.2
2018-11-27T04:36:08.778Z,48.1
2018-11-27T04:37:10.124Z,47.5
2018-11-27T04:38:11.469Z,47.8
2018-11-27T04:39:13.412Z,48.4
2018-11-27T04:40:15.309Z,48.1
2018-11-27T04:41:16.931Z,48
2018-11-27T04:42:18.261Z,48.2
2018-11-27T04:43:19.601Z,48.3
2018-11-27T04:44:20.947Z,48.2
2018-11-27T04:45:22.845Z,47.5
2018-11-27T04:46:24.169Z,48.3
2018-11-27T04:47:26.065Z,48.2
2018-11-27T04:48:27.957Z,48.3
2018-11-27T04:49:29.579Z,47.4
2018-11-27T04:50:30.921Z,47.8
2018-11-27T04:51:32.544Z,47.5
2018-11-27T04:52:33.894Z,48.2
2018-11-27T04:53:35.221Z,47.6
2018-11-27T04:54:37.122Z,47.5
2018-11-27T04:55:39.020Z,48.1
2018-11-27T04:56:40.646Z,48.4
2018-11-27T04:57:42.269Z,48.4
2018-11-27T04:58:43.894Z,48.2
2018-11-27T04:59:45.517Z,48.3
2018-11-27T05:00:47.413Z,48.3
2018-11-27T05:01:49.310Z,48.1
2018-11-27T05:02:50.944Z,47.5
2018-11-27T05:03:52.268Z,48.1
2018-11-27T05:04:53.888Z,48.1
2018-11-27T05:05:55.512Z,47.4
2018-11-27T05:06:57.406Z,48.3
2018-11-27T05:07:59.026Z,47.5
2018-11-27T05:09:00.924Z,47.6
2018-11-27T05:10:02.815Z,48.1
2018-11-27T05:11:04.436Z,47.6
2018-11-27T05:12:06.055Z,48.2
2018-11-27T05:13:07.675Z,47.6
2018-11-27T05:14:09.569Z,48.3
2018-11-27T05:15:11.189Z,48.1
2018-11-27T05:16:12.817Z,48.1
2018-11-27T05:17:14.711Z,48
2018-11-27T05:18:16.607Z,47.8
2018-11-27T05:19:18.229Z,48.2
2018-11-27T05:20:19.837Z,48
2018-11-27T05:21:21.457Z,47.7
2018-11-27T05:22:22.781Z,48.2
2018-11-27T05:23:24.676Z,48.3
2018-11-27T05:24:26.572Z,47.9
2018-11-27T05:25:27.895Z,48.3
2018-11-27T05:26:29.512Z,48.2
2018-11-27T05:27:30.577Z,47.6
2018-11-27T05:28:32.199Z,48
2018-11-27T05:29:34.092Z,47.9
2018-11-27T05:30:35.990Z,48.2
2018-11-27T05:31:37.882Z,48.2
2018-11-27T05:32:41.124Z,48
2018-11-27T05:33:43.296Z,48
2018-11-27T05:35:01.367Z,47.9
2018-11-27T05:36:02.713Z,48
2018-11-27T05:37:04.612Z,47.9
2018-11-27T05:38:05.938Z,47.7
2018-11-27T05:39:07.834Z,47.8
2018-11-27T05:40:09.440Z,47.8
2018-11-27T05:41:10.755Z,47.7
2018-11-27T05:42:12.376Z,47.8
2018-11-27T05:43:13.976Z,47.8
2018-11-27T05:44:15.869Z,47.8
2018-11-27T05:45:17.496Z,47.7
2018-11-27T05:46:18.839Z,47.8
2018-11-27T05:47:20.478Z,47.8
2018-11-27T05:48:22.372Z,47.9
2018-11-27T05:49:24.049Z,47.8
2018-11-27T05:50:25.933Z,47.8
2018-11-27T05:51:27.826Z,47.7
2018-11-27T05:52:29.444Z,47.9
2018-11-27T05:53:31.042Z,47.9
2018-11-27T05:54:32.367Z,47.8
2018-11-27T05:55:33.989Z,47.4
2018-11-27T05:56:35.310Z,47.9
2018-11-27T05:57:36.930Z,47.6
2018-11-27T05:58:38.548Z,47.9
2018-11-27T05:59:40.444Z,48
2018-11-27T06:00:42.041Z,47.9
2018-11-27T06:01:43.663Z,47.7
2018-11-27T06:02:45.015Z,47.8
2018-11-27T06:03:46.339Z,47.5
2018-11-27T06:04:48.236Z,47.4
2018-11-27T06:05:49.851Z,48
2018-11-27T06:06:51.469Z,47.5
2018-11-27T06:07:53.095Z,48
2018-11-27T06:08:54.438Z,47.9
2018-11-27T06:09:56.335Z,47.8
2018-11-27T06:10:57.681Z,47.9
2018-11-27T06:11:59.030Z,47.6
2018-11-27T06:13:00.926Z,48
2018-11-27T06:14:02.821Z,48
2018-11-27T06:15:04.444Z,48
2018-11-27T06:16:06.339Z,48
2018-11-27T06:17:08.234Z,48
2018-11-27T06:18:09.849Z,47.9
2018-11-27T06:19:11.468Z,47.8
2018-11-27T06:20:13.363Z,47.7
2018-11-27T06:21:15.260Z,48
2018-11-27T06:22:16.884Z,48.2
2018-11-27T06:23:18.777Z,48.2
2018-11-27T06:24:20.129Z,48.2
2018-11-27T06:25:21.756Z,48.3
2018-11-27T06:26:23.372Z,48.1
2018-11-27T06:27:24.731Z,48
2018-11-27T06:28:26.659Z,47.7
2018-11-27T06:29:28.619Z,48
2018-11-27T06:30:29.702Z,48.2
2018-11-27T06:31:31.325Z,48.2
2018-11-27T06:32:32.379Z,48.1
2018-11-27T06:33:33.995Z,47.9
2018-11-27T06:34:35.893Z,47.6
2018-11-27T06:35:37.514Z,48.4
2018-11-27T06:36:38.841Z,48
2018-11-27T06:37:40.444Z,47.9
2018-11-27T06:38:42.340Z,48
2018-11-27T06:39:43.687Z,48
2018-11-27T06:40:45.585Z,47.9
2018-11-27T06:41:47.206Z,47.9
2018-11-27T06:42:48.825Z,47.9
2018-11-27T06:43:50.173Z,47.9
2018-11-27T06:44:51.772Z,48.1
2018-11-27T06:45:53.396Z,48
2018-11-27T06:46:54.999Z,47.7
2018-11-27T06:47:56.352Z,48.2
2018-11-27T06:48:57.673Z,47.9
2018-11-27T06:49:59.005Z,47.8
2018-11-27T06:51:00.625Z,47.3
2018-11-27T06:52:03.141Z,47.8
2018-11-27T06:53:04.761Z,47.7
2018-11-27T06:54:06.088Z,47.9
2018-11-27T06:55:07.989Z,48
2018-11-27T06:56:09.316Z,47.7
2018-11-27T06:57:10.942Z,48.4
2018-11-27T06:58:12.592Z,48.2
2018-11-27T06:59:14.002Z,48.4
2018-11-27T07:00:15.891Z,48.1
2018-11-27T07:01:17.792Z,48.1
2018-11-27T07:02:19.156Z,47.9
2018-11-27T07:03:20.491Z,47.8
2018-11-27T07:04:22.159Z,47.7
2018-11-27T07:05:23.489Z,48.4
2018-11-27T07:06:25.111Z,48.4
2018-11-27T07:07:27.008Z,48.8
2018-11-27T07:08:28.358Z,48.7
2018-11-27T07:09:29.969Z,48.2
2018-11-27T07:10:31.312Z,48.7
2018-11-27T07:11:32.942Z,48.7
2018-11-27T07:12:34.564Z,48.4
2018-11-27T07:13:36.589Z,48.8
2018-11-27T07:14:38.545Z,48.7
2018-11-27T07:15:39.336Z,48.9
2018-11-27T07:16:40.932Z,49.1
2018-11-27T07:17:42.559Z,48.9
2018-11-27T07:18:44.184Z,48.5
2018-11-27T07:19:45.805Z,49
2018-11-27T07:20:47.722Z,48.5
2018-11-27T07:21:49.620Z,48.7
2018-11-27T07:22:50.969Z,48.8
2018-11-27T07:23:52.869Z,48.9
2018-11-27T07:24:54.769Z,48.7
2018-11-27T07:25:56.374Z,48.6
2018-11-27T07:26:58.273Z,48.3
2018-11-27T07:28:00.170Z,48.4
2018-11-27T07:29:01.497Z,48.5
2018-11-27T07:30:02.838Z,48.3
2018-11-27T07:31:04.183Z,48.7
2018-11-27T07:32:10.046Z,48.6
2018-11-27T07:33:11.664Z,48.9
2018-11-27T07:34:13.765Z,48.5
2018-11-27T07:35:15.664Z,49
2018-11-27T07:36:17.267Z,49
2018-11-27T07:37:18.885Z,48.9
2018-11-27T07:38:20.217Z,48.9
2018-11-27T07:39:21.850Z,49
2018-11-27T07:40:23.452Z,49.1
2018-11-27T07:41:25.353Z,49.1
2018-11-27T07:42:26.685Z,49
2018-11-27T07:43:28.308Z,49
2018-11-27T07:44:29.930Z,49
2018-11-27T07:45:31.560Z,49
2018-11-27T07:46:33.455Z,49.3
2018-11-27T07:47:35.354Z,49
2018-11-27T07:48:36.980Z,49
2018-11-27T07:49:38.603Z,49.2
2018-11-27T07:50:39.954Z,49.2
2018-11-27T07:51:41.302Z,49.1
2018-11-27T07:52:43.201Z,49
2018-11-27T07:53:44.335Z,49.1
2018-11-27T07:54:46.299Z,49.2
2018-11-27T07:55:48.196Z,49
2018-11-27T07:56:50.096Z,49
2018-11-27T07:57:51.731Z,48.8
2018-11-27T07:58:52.790Z,48.8
2018-11-27T07:59:54.120Z,49
2018-11-27T08:00:55.801Z,48.9
2018-11-27T08:01:57.733Z,48.5
2018-11-27T08:02:59.631Z,48.8
2018-11-27T08:04:00.962Z,48.9
2018-11-27T08:05:02.859Z,48.4
2018-11-27T08:06:04.198Z,48.9
2018-11-27T08:07:05.818Z,48.8
2018-11-27T08:08:07.750Z,48.6
2018-11-27T08:09:09.085Z,48.6
2018-11-27T08:10:10.709Z,49.2
2018-11-27T08:11:12.609Z,48.4
2018-11-27T08:12:13.662Z,48.9
2018-11-27T08:13:15.746Z,48.5
2018-11-27T08:14:18.000Z,49.3
2018-11-27T08:15:20.712Z,48.7
2018-11-27T08:16:23.465Z,48.5
2018-11-27T08:17:25.638Z,49.2
2018-11-27T08:18:28.023Z,48.9
2018-11-27T08:19:30.260Z,48.4
2018-11-27T08:22:04.145Z,48.3
2018-11-27T08:23:06.675Z,48.8
2018-11-27T08:24:09.437Z,48.3
2018-11-27T08:26:42.972Z,48.7
2018-11-27T08:27:45.574Z,48.6
2018-11-27T08:28:48.135Z,48.6
2018-11-27T08:29:51.255Z,48.5
2018-11-27T08:30:53.826Z,48.5
2018-11-27T08:31:56.664Z,48.9
2018-11-27T08:32:58.813Z,48.9
2018-11-27T08:34:01.296Z,48.8
2018-11-27T08:35:04.650Z,49.1
2018-11-27T08:36:06.796Z,48.9
2018-11-27T08:37:09.227Z,48.9
2018-11-27T08:38:11.493Z,48.9
2018-11-27T08:39:13.752Z,48.9
2018-11-27T08:40:15.814Z,49.1
2018-11-27T08:41:17.863Z,49
2018-11-27T08:42:19.379Z,49.2
2018-11-27T08:43:21.278Z,49.3
2018-11-27T08:44:23.174Z,49
2018-11-27T08:45:24.781Z,49
2018-11-27T08:46:27.188Z,49.3
2018-11-27T08:47:29.088Z,49
2018-11-27T08:48:31.003Z,49.1
2018-11-27T08:49:32.904Z,48.9
2018-11-27T08:50:34.507Z,49.1
2018-11-27T08:51:35.862Z,49
2018-11-27T08:52:37.490Z,49.2
2018-11-27T08:53:39.397Z,49.1
2018-11-27T08:54:41.009Z,49.4
2018-11-27T08:55:42.633Z,49.3
2018-11-27T08:56:43.982Z,49
2018-11-27T08:57:45.333Z,49.2
2018-11-27T08:58:46.661Z,49.1
2018-11-27T08:59:48.559Z,49.1
2018-11-27T09:00:50.183Z,49
2018-11-27T09:01:52.080Z,49
2018-11-27T09:02:53.983Z,49
2018-11-27T09:03:55.961Z,49
2018-11-27T09:04:57.612Z,48.7
2018-11-27T09:05:59.526Z,48.7
2018-11-27T09:07:01.341Z,49.1
2018-11-27T09:08:02.949Z,49
2018-11-27T09:09:04.844Z,48.7
2018-11-27T09:10:06.447Z,48.4
2018-11-27T09:11:07.813Z,48.9
2018-11-27T09:12:09.464Z,48.8
2018-11-27T09:13:10.975Z,49.3
2018-11-27T09:14:14.066Z,48.5
2018-11-27T09:15:16.492Z,48.9
2018-11-27T09:16:18.189Z,49
2018-11-27T09:17:19.810Z,48.5
2018-11-27T09:18:21.437Z,48.3
2018-11-27T09:19:22.785Z,48.5
2018-11-27T09:20:24.107Z,48.4
2018-11-27T09:21:25.734Z,48.6
2018-11-27T09:22:27.077Z,48.5
2018-11-27T09:23:28.422Z,48.4
2018-11-27T09:24:29.827Z,48.9
2018-11-27T09:25:31.259Z,48.6
2018-11-27T09:26:32.514Z,48.6
2018-11-27T09:27:34.315Z,48.5
2018-11-27T09:28:36.225Z,48.3
2018-11-27T09:29:37.850Z,48.8
2018-11-27T09:30:39.682Z,48.6
2018-11-27T09:31:41.402Z,48.7
2018-11-27T09:32:43.025Z,48.6
2018-11-27T09:33:44.360Z,48.8
2018-11-27T09:34:46.274Z,48.7
2018-11-27T09:35:47.624Z,48.5
2018-11-27T09:36:48.974Z,49
2018-11-27T09:37:50.301Z,48.5
2018-11-27T09:38:51.901Z,48.5
2018-11-27T09:39:53.247Z,48.5
2018-11-27T09:40:55.149Z,48.5
2018-11-27T09:41:56.776Z,48.7
2018-11-27T09:42:58.106Z,48.2
2018-11-27T09:44:00.004Z,48.1
2018-11-27T09:45:01.619Z,48.1
2018-11-27T09:46:02.987Z,48
2018-11-27T09:47:04.671Z,48.2
2018-11-27T09:48:06.339Z,47.5
2018-11-27T09:49:07.695Z,48.1
2018-11-27T09:50:09.387Z,47.6
2018-11-27T09:51:11.105Z,47.5
2018-11-27T09:52:12.239Z,48.1
2018-11-27T09:53:13.882Z,48.1
2018-11-27T09:54:15.784Z,48.1
2018-11-27T09:55:17.821Z,48.2
2018-11-27T09:56:19.509Z,47.7
2018-11-27T09:57:20.924Z,48
2018-11-27T09:58:22.694Z,48
2018-11-27T09:59:24.309Z,48
2018-11-27T10:00:25.401Z,47.9
2018-11-27T10:01:27.113Z,47.9
2018-11-27T10:02:28.275Z,47.8
2018-11-27T10:03:30.020Z,47.8
2018-11-27T10:04:31.918Z,48
2018-11-27T10:05:33.278Z,47.9
2018-11-27T10:06:35.009Z,47.8
2018-11-27T10:07:36.493Z,47.8
2018-11-27T10:08:38.123Z,47.9
2018-11-27T10:09:40.498Z,47.7
2018-11-27T10:10:42.119Z,47.3
2018-11-27T10:11:43.743Z,47.7
2018-11-27T10:12:44.847Z,47.9
2018-11-27T10:13:46.468Z,47.7
2018-11-27T10:14:48.131Z,48
2018-11-27T10:15:50.080Z,47.2
2018-11-27T10:16:51.704Z,47.6
2018-11-27T10:17:53.603Z,47.7
2018-11-27T10:18:54.953Z,47.3
2018-11-27T10:19:56.558Z,47.8
2018-11-27T10:20:58.236Z,47.7
2018-11-27T10:21:59.837Z,47.7
2018-11-27T10:23:01.459Z,47.7
2018-11-27T10:24:03.362Z,47.8
2018-11-27T10:25:04.965Z,47.7
2018-11-27T10:26:06.710Z,47.6
2018-11-27T10:27:07.914Z,47.5
2018-11-27T10:28:09.816Z,47.5
2018-11-27T10:29:11.439Z,47.3
2018-11-27T10:30:13.068Z,47.7
2018-11-27T10:31:14.413Z,47.6
2018-11-27T10:32:16.310Z,47.6
2018-11-27T10:33:17.637Z,47.5
2018-11-27T10:34:19.259Z,47.5
2018-11-27T10:35:20.884Z,47.8
2018-11-27T10:36:22.779Z,47.6
2018-11-27T10:37:24.402Z,47.3
2018-11-27T10:38:26.954Z,47.6
2018-11-27T10:39:28.576Z,47.4
2018-11-27T10:40:30.473Z,47.5
2018-11-27T10:41:31.877Z,47.2
2018-11-27T10:42:33.211Z,47.3
2018-11-27T10:43:35.111Z,47.4
2018-11-27T10:44:36.502Z,47.4
2018-11-27T10:45:38.401Z,47.3
2018-11-27T10:46:40.297Z,47.3
2018-11-27T10:47:42.195Z,47.5
2018-11-27T10:48:43.531Z,47.5
2018-11-27T10:49:45.438Z,47.2
2018-11-27T10:50:47.051Z,47.4
2018-11-27T10:51:48.952Z,47.4
2018-11-27T10:52:50.574Z,47.2
2018-11-27T10:53:51.963Z,47.6
2018-11-27T10:54:53.886Z,47.4
2018-11-27T10:55:55.784Z,47.1
2018-11-27T10:56:57.410Z,47.2
2018-11-27T10:57:59.020Z,47.6
2018-11-27T10:59:00.410Z,47.3
2018-11-27T11:00:02.129Z,47.4
2018-11-27T11:01:04.210Z,47.2
2018-11-27T11:02:06.109Z,47.5
2018-11-27T11:03:07.436Z,47.4
2018-11-27T11:04:09.058Z,47.6
2018-11-27T11:05:10.957Z,47.5
2018-11-27T11:06:12.857Z,47.4
2018-11-27T11:07:15.700Z,47.5
2018-11-27T11:08:17.705Z,47.4
2018-11-27T11:09:19.330Z,47.4
2018-11-27T11:10:20.953Z,47.4
2018-11-27T11:11:22.567Z,47.5
2018-11-27T11:12:24.463Z,47.2
2018-11-27T11:13:26.401Z,47.1
2018-11-27T11:14:28.023Z,47.1
2018-11-27T11:15:29.347Z,47
2018-11-27T11:16:30.697Z,46.9
2018-11-27T11:17:32.318Z,47
2018-11-27T11:18:34.217Z,47
2018-11-27T11:19:35.840Z,47
2018-11-27T11:20:37.462Z,47
2018-11-27T11:21:38.815Z,47.1
2018-11-27T11:22:40.433Z,46.8
2018-11-27T11:23:42.126Z,46.8
2018-11-27T11:24:43.771Z,47
2018-11-27T11:25:45.729Z,46.9
2018-11-27T11:26:47.348Z,46.9
2018-11-27T11:27:48.971Z,46.8
2018-11-27T11:28:50.869Z,47
2018-11-27T11:29:52.767Z,46.6
2018-11-27T11:30:54.113Z,46.7
2018-11-27T11:31:55.745Z,46.7
2018-11-27T11:32:57.390Z,46.5
2018-11-27T11:33:59.193Z,46.6
2018-11-27T11:35:01.100Z,46.7
2018-11-27T11:36:02.425Z,46.9
2018-11-27T11:37:03.750Z,46.9
2018-11-27T11:38:05.376Z,46.7
2018-11-27T11:39:07.274Z,46.7
2018-11-27T11:40:08.619Z,46.6
2018-11-27T11:41:11.664Z,46.8
2018-11-27T11:42:13.012Z,46.7
2018-11-27T11:43:14.914Z,46.6
2018-11-27T11:44:16.537Z,46.7
2018-11-27T11:45:18.163Z,46.8
2018-11-27T11:46:20.060Z,46.6
2018-11-27T11:47:21.683Z,46.7
2018-11-27T11:48:23.307Z,46.4
2018-11-27T11:49:24.932Z,46.4
2018-11-27T11:50:26.277Z,46.3
2018-11-27T11:51:28.170Z,46.4
2018-11-27T11:52:29.463Z,46.4
2018-11-27T11:53:30.991Z,46.6
2018-11-27T11:54:32.041Z,46.2
2018-11-27T11:55:33.644Z,46.5
2018-11-27T11:56:35.269Z,46.5
2018-11-27T11:57:36.898Z,46.7
2018-11-27T11:58:38.226Z,46.3
2018-11-27T11:59:40.137Z,46.4
2018-11-27T12:00:41.778Z,46.4
2018-11-27T12:01:43.119Z,46.4
2018-11-27T12:02:45.024Z,46.1
2018-11-27T12:03:46.919Z,46.2
2018-11-27T12:04:48.546Z,46.1
2018-11-27T12:05:50.448Z,46.4
2018-11-27T12:06:51.773Z,46.2
2018-11-27T12:07:53.671Z,46.7
2018-11-27T12:08:54.459Z,46.6
2018-11-27T12:09:56.085Z,46.5
2018-11-27T12:10:57.985Z,46.2
2018-11-27T12:11:59.610Z,46.2
2018-11-27T12:13:01.230Z,46.5
2018-11-27T12:14:02.556Z,46.2
2018-11-27T12:15:04.457Z,46.1
2018-11-27T12:16:06.349Z,46.1
2018-11-27T12:17:07.700Z,46.2
2018-11-27T12:18:09.344Z,46.1
2018-11-27T12:19:11.237Z,46.3
2018-11-27T12:20:12.866Z,46.4
2018-11-27T12:21:14.208Z,46.1
2018-11-27T12:22:15.538Z,46.2
2018-11-27T12:23:17.155Z,46.1
2018-11-27T12:24:19.052Z,46.2
2018-11-27T12:25:24.831Z,46.3
2018-11-27T12:26:26.742Z,46
2018-11-27T12:27:28.093Z,46.2
2018-11-27T12:28:29.986Z,46.1
2018-11-27T12:29:31.041Z,45.9
2018-11-27T12:30:32.386Z,46.1
2018-11-27T12:31:34.287Z,45.9
2018-11-27T12:32:35.969Z,45.7
2018-11-27T12:33:37.860Z,45.8
2018-11-27T12:34:39.806Z,45.7
2018-11-27T12:35:40.585Z,45.8
2018-11-27T12:36:42.203Z,45.7
2018-11-27T12:37:43.806Z,45.9
2018-11-27T12:38:45.701Z,45.8
2018-11-27T12:39:46.764Z,45.8
2018-11-27T12:40:48.665Z,45.5
2018-11-27T12:41:50.015Z,45.5
2018-11-27T12:42:51.907Z,45.8
2018-11-27T12:43:53.250Z,45.8
2018-11-27T12:44:54.596Z,45.6
2018-11-27T12:45:55.945Z,45.8
2018-11-27T12:46:57.567Z,45.8
2018-11-27T12:47:58.620Z,45.8
2018-11-27T12:48:59.968Z,46.1
2018-11-27T12:50:01.299Z,45.8
2018-11-27T12:51:02.917Z,45.8
2018-11-27T12:52:04.812Z,45.8
2018-11-27T12:53:05.863Z,45.7
2018-11-27T12:54:07.486Z,46.1
2018-11-27T12:55:09.389Z,46
2018-11-27T12:56:11.284Z,46
2018-11-27T12:57:12.888Z,46.1
2018-11-27T12:58:14.781Z,45.9
2018-11-27T12:59:16.679Z,45.6
2018-11-27T13:00:18.025Z,45.5
2018-11-27T13:01:19.922Z,45.5
2018-11-27T13:02:20.999Z,45.8
2018-11-27T13:03:22.333Z,45.5
2018-11-27T13:04:23.681Z,45.6
2018-11-27T13:05:25.026Z,46.2
2018-11-27T13:06:28.412Z,46.3
2018-11-27T13:07:29.460Z,46
2018-11-27T13:08:31.080Z,45.9
2018-11-27T13:09:32.983Z,45.8
2018-11-27T13:10:34.633Z,45.8
2018-11-27T13:11:35.685Z,45.8
2018-11-27T13:12:37.016Z,45.6
2018-11-27T13:13:38.629Z,45.7
2018-11-27T13:14:40.253Z,45.6
2018-11-27T13:15:41.875Z,45.6
2018-11-27T13:16:43.502Z,45.7
2018-11-27T13:17:45.415Z,45.5
2018-11-27T13:18:47.312Z,45.7
2018-11-27T13:19:48.636Z,45.7
2018-11-27T13:20:50.250Z,45.6
2018-11-27T13:21:52.148Z,45.5
2018-11-27T13:22:53.509Z,45.7
2018-11-27T13:23:54.929Z,45.6
2018-11-27T13:24:56.532Z,45.6
2018-11-27T13:25:58.317Z,45.8
2018-11-27T13:26:59.666Z,45
2018-11-27T13:28:01.285Z,45.1
2018-11-27T13:29:02.906Z,45.3
2018-11-27T13:30:04.802Z,45.1
2018-11-27T13:31:06.157Z,45.1
2018-11-27T13:32:07.758Z,45.2
2018-11-27T13:33:09.083Z,45
2018-11-27T13:34:10.982Z,45.3
2018-11-27T13:35:12.878Z,45.4
2018-11-27T13:36:14.773Z,45.4
2018-11-27T13:37:16.127Z,45.3
2018-11-27T13:38:17.443Z,44.9
2018-11-27T13:39:19.068Z,45.2
2018-11-27T13:40:20.690Z,45.1
2018-11-27T13:41:22.305Z,44.9
2018-11-27T13:42:24.200Z,45
2018-11-27T13:43:25.546Z,44.9
2018-11-27T13:44:27.171Z,44.9
2018-11-27T13:45:29.066Z,44.8
2018-11-27T13:46:30.393Z,44.7
2018-11-27T13:47:32.021Z,45
2018-11-27T13:48:33.344Z,45
2018-11-27T13:49:34.971Z,44.9
2018-11-27T13:50:36.018Z,45
2018-11-27T13:51:37.917Z,45
2018-11-27T13:52:39.810Z,45